Muskogee, OK

12:08 PM CDT on July 27, 2017 (GMT -0500)
West of Muskogee | | Change Station
Active Advisory: Heat Advisory

Elev 722 ft 35.77 °N, 95.44 °W | Updated 1 minute ago

Partly Cloudy
Partly Cloudy
86.7 °F
Feels Like 99 °F
N
0.0
Wind Variable Wind from SSE
Gusts 0.0 mph

Today
High -- | Low -- °F
--% Chance of Precip.
Yesterday
High -- | Low -- °F
Precip. -- in
Pressure 29.98 in
Visibility 10.0 miles
Clouds Clear
Heat Index 99 °F
Dew Point 77 °F
Humidity 74%
Rainfall 0.00 in
Snow Depth Not available.
6:25 AM 8:29 PM
Waxing Crescent, 22% visible
METAR KMKO 271653Z AUTO 19003KT 10SM CLR 29/23 A3000 RMK AO2 SLP150 T02940233
Pressure 29.98 in
Visibility 10.0 miles
Clouds Clear
Heat Index 99 °F
Dew Point 77 °F
Humidity 74%
Rainfall 0.00 in
Snow Depth Not available.
6:25 AM 8:29 PM
Waxing Crescent, 22% visible
METAR KMKO 271653Z AUTO 19003KT 10SM CLR 29/23 A3000 RMK AO2 SLP150 T02940233

Get Your Daily Forecast Email!

Thanks for signing up!

Be on the lookout for a verification email in your inbox.

You'll start receiving severe weather alerts in your inbox..

×

10-Day Weather Forecast

Almanac

Astronomy

Jul. 27, 2017 Rise Set
Actual Time
Civil Twilight
Nautical Twilight
Astronomical Twilight
Moon
Length of Visible Light
Length of Day
Tomorrow will be .
, % of the Moon is Illuminated

Today's Extremes

State Highs State Lows

Community

WunderPhotos

Category 6

Welcome to Category 6. This is the collective home for Weather Underground's featured writeups by Dr. Jeff Masters (right), Bob Henson (left), Chris Burt, and other regular contributors.

Nearby

Air Quality

  Air Quality AQ Index Pollutant
Not available.

Snow Depth

Station Depth Elevation

Earthquake Activity

City Distance Mag. Time & Date
Minimum magnitude displayed is 2.5.

Coastal Water Temperatures

Place Temperature

Stations

Nearby Weather Stations

Station Location Temp. Windchill Dew Point Humidity Wind Precip. Elev Updated Type
                   

Watches & Warnings

Heat Advisory
Issued: 11:41 AM CDT Jul. 27, 2017 – National Weather Service

... Heat advisory remains in effect until 8 PM CDT this evening...

* temperature... high temperatures are expected to climb into the
mid to upper 90s this afternoon. These temperatures, combined
with high humidity, will result in dangerous heat index values
in the 105 to 110 degree range.

* Impacts... the combination of hot temperatures and high
humidity will create a dangerous situation in which heat
illnesses are possible.

Precautionary/preparedness actions...

Take extra precautions if you work or spend time outside. When
possible, reschedule strenuous activities to early morning or
evening. Know the signs and symptoms of heat exhaustion and heat
stroke. Wear light weight and loose fitting clothing when
possible and drink plenty of water.



Lacy